Time;durP1;ratioP1;P1;durP2;ratioP2;P2;SDS_P1;SDS_P2;PMS_P1;PMS_P2;Temp;Humidity;BMP_temperature;BMP_pressure;BME280_temperature;BME280_humidity;BME280_pressure;Samples;Min_cycle;Max_cycle;Signal;HPM_P1;HPM_P2
2022/09/04 00:01:27;;;;;;;;;;;;;;;22.37;57.80;101001.91;7265187;19;154896;-63
2022/09/04 00:04:02;;;;;;;;;;;;;;;22.37;58.12;101002.75;7263972;19;154602;-63
2022/09/04 00:06:32;;;;;;;;;;;;;;;22.37;57.79;100999.94;7280499;19;154677;-63
2022/09/04 00:09:05;;;;;;;;;;;;;;;22.37;57.86;100996.28;7270245;19;153302;-63
2022/09/04 00:11:54;;;;;;;;;;;;;;;22.34;57.81;101000.56;7278914;19;155005;-63
2022/09/04 00:14:25;;;;;;;;;;;;;;;22.33;58.08;101003.69;7277488;19;152503;-63
2022/09/04 00:16:57;;;;;;;;;;;;;;;22.33;58.04;100998.06;7281490;19;154805;-63
2022/09/04 00:19:26;;;;;;;;;;;;;;;22.33;57.53;100992.44;7271303;19;152519;-63
2022/09/04 00:21:58;;;;;;;;;;;;;;;22.33;57.99;100998.91;7276210;19;154602;-63
2022/09/04 00:24:29;;;;;;;;;;;;;;;22.31;57.85;101003.19;7278746;19;153977;-63
2022/09/04 00:27:02;;;;;;;;;;;;;;;22.38;58.46;100998.78;7280461;19;153383;-62
2022/09/04 00:29:36;;;;;;;;;;;;;;;22.37;58.30;101002.75;7287545;19;152293;-63
2022/09/04 00:32:05;;;;;;;;;;;;;;;22.33;58.81;101001.72;7283778;19;154659;-62
2022/09/04 00:34:35;;;;;;;;;;;;;;;22.33;58.88;101004.53;7283473;19;154782;-62
2022/09/04 00:37:04;;;;;;;;;;;;;;;22.33;59.08;101015.78;7285960;19;153940;-62
2022/09/04 00:39:53;;;;;;;;;;;;;;;22.33;59.49;100998.91;7284402;19;152244;-62
2022/09/04 00:42:26;;;;;;;;;;;;;;;22.36;59.69;101008.69;7285498;19;153804;-62
2022/09/04 00:45:12;;;;;;;;;;;;;;;22.35;59.39;101007.84;7286632;19;155037;-62
2022/09/04 00:47:56;;;;;;;;;;;;;;;22.35;59.52;101013.47;7288410;19;152445;-62
2022/09/04 00:50:33;;;;;;;;;;;;;;;22.41;60.13;101011.38;7284277;19;153027;-62
2022/09/04 00:53:02;;;;;;;;;;;;;;;22.38;59.81;101026.94;7294432;19;151968;-62
2022/09/04 00:55:45;;;;;;;;;;;;;;;22.42;59.77;101025.16;7287563;19;152209;-62
2022/09/04 00:58:21;;;;;;;;;;;;;;;22.47;59.69;101029.81;7286645;19;152833;-62
2022/09/04 01:00:48;;;;;;;;;;;;;;;22.46;59.95;101033.78;7282966;19;153200;-62
2022/09/04 01:03:15;;;;;;;;;;;;;;;22.44;60.62;101034.09;7286086;19;152377;-62
2022/09/04 01:05:55;;;;;;;;;;;;;;;22.42;60.09;101032.75;7281177;19;153615;-62
2022/09/04 01:08:45;;;;;;;;;;;;;;;22.42;60.18;101035.56;7285864;19;153164;-62
2022/09/04 01:11:15;;;;;;;;;;;;;;;22.44;60.00;101036.91;7287253;19;154887;-62
2022/09/04 01:14:02;;;;;;;;;;;;;;;22.50;60.56;101031.97;7285794;19;153394;-62
2022/09/04 01:16:32;;;;;;;;;;;;;;;22.49;60.19;101033.97;7293938;19;154459;-62
2022/09/04 01:19:02;;;;;;;;;;;;;;;22.52;60.17;101038.97;7287373;19;153718;-63
2022/09/04 01:21:32;;;;;;;;;;;;;;;22.57;59.98;101043.66;7282156;19;154194;-63
2022/09/04 01:24:04;;;;;;;;;;;;;;;22.53;60.66;101028.53;7285198;19;153363;-63
2022/09/04 01:26:31;;;;;;;;;;;;;;;22.53;60.30;101034.19;7285782;19;155125;-63
2022/09/04 01:29:16;;;;;;;;;;;;;;;22.55;60.13;101032.69;7282501;19;155185;-62
2022/09/04 01:31:49;;;;;;;;;;;;;;;22.56;60.65;101036.34;7285259;19;152025;-63
2022/09/04 01:34:15;;;;;;;;;;;;;;;22.58;60.11;101036.84;7282856;19;153726;-62
2022/09/04 01:36:51;;;;;;;;;;;;;;;22.56;60.47;101031.53;7290749;19;154052;-63
2022/09/04 01:39:21;;;;;;;;;;;;;;;22.57;60.29;101036.03;7286109;19;153412;-63
2022/09/04 01:41:55;;;;;;;;;;;;;;;22.56;60.21;101034.38;7284610;19;152429;-62
2022/09/04 01:44:22;;;;;;;;;;;;;;;22.60;60.39;101029.75;7283331;19;152247;-63
2022/09/04 01:46:57;;;;;;;;;;;;;;;22.65;60.27;101033.59;7287991;19;152619;-62
2022/09/04 01:49:30;;;;;;;;;;;;;;;22.60;60.53;101035.38;7281713;19;152872;-62
2022/09/04 01:52:15;;;;;;;;;;;;;;;22.62;60.48;101033.06;7280737;19;153318;-62
2022/09/04 01:54:55;;;;;;;;;;;;;;;22.61;60.42;101027.78;7282789;19;153559;-62
2022/09/04 01:57:32;;;;;;;;;;;;;;;22.60;60.81;101037.38;7281733;19;153877;-61
2022/09/04 02:00:01;;;;;;;;;;;;;;;22.60;60.63;101035.38;7290917;19;151868;-62
2022/09/04 02:02:37;;;;;;;;;;;;;;;22.58;60.37;101032.03;7283788;19;153838;-62
2022/09/04 02:05:20;;;;;;;;;;;;;;;22.58;61.03;101045.28;7278965;19;152755;-63
2022/09/04 02:07:51;;;;;;;;;;;;;;;22.58;60.93;101037.66;7283563;19;152066;-62
2022/09/04 02:10:37;;;;;;;;;;;;;;;22.61;60.51;101039.88;7281827;19;153481;-63
2022/09/04 02:13:23;;;;;;;;;;;;;;;22.60;61.10;101041.00;7281598;19;154465;-63
2022/09/04 02:16:05;;;;;;;;;;;;;;;22.58;60.60;101037.66;7284036;19;153893;-62
2022/09/04 02:18:35;;;;;;;;;;;;;;;22.58;60.78;101036.84;7282067;19;154066;-62
2022/09/04 02:21:26;;;;;;;;;;;;;;;22.58;61.02;101042.47;7281021;19;153776;-62
2022/09/04 02:24:14;;;;;;;;;;;;;;;22.59;60.97;101042.16;7288620;19;154548;-62
2022/09/04 02:26:47;;;;;;;;;;;;;;;22.57;60.49;101040.81;7285631;19;153467;-62
2022/09/04 02:29:23;;;;;;;;;;;;;;;22.57;60.70;101038.84;7282308;19;153602;-62
2022/09/04 02:31:58;;;;;;;;;;;;;;;22.59;60.86;101039.34;7283126;19;153086;-63
2022/09/04 02:34:25;;;;;;;;;;;;;;;22.57;61.30;101040.81;7282356;19;153881;-62
2022/09/04 02:37:07;;;;;;;;;;;;;;;22.58;60.79;101048.94;7283683;19;152402;-62
2022/09/04 02:39:59;;;;;;;;;;;;;;;22.60;61.14;101045.81;7281815;19;156305;-62
2022/09/04 02:42:38;;;;;;;;;;;;;;;22.66;61.30;101049.34;7283937;19;153042;-62
2022/09/04 02:45:18;;;;;;;;;;;;;;;22.62;61.46;101047.16;7281488;19;152493;-63
2022/09/04 02:47:52;;;;;;;;;;;;;;;22.60;61.83;101049.47;7290327;19;153942;-62
2022/09/04 02:50:25;;;;;;;;;;;;;;;22.65;62.03;101047.66;7280388;19;153976;-63
2022/09/04 02:53:02;;;;;;;;;;;;;;;22.64;61.54;101049.66;7282448;19;153832;-62
2022/09/04 02:55:47;;;;;;;;;;;;;;;22.63;61.72;101039.53;7277145;19;152313;-63
2022/09/04 02:58:18;;;;;;;;;;;;;;;22.65;62.12;101039.22;7282998;19;152289;-63
2022/09/04 03:00:45;;;;;;;;;;;;;;;22.61;62.08;101048.31;7280523;19;154608;-63
2022/09/04 03:03:15;;;;;;;;;;;;;;;22.63;62.30;101046.00;7280115;19;154050;-63
2022/09/04 03:06:02;;;;;;;;;;;;;;;22.61;62.64;101048.31;7278053;19;153844;-63
2022/09/04 03:08:34;;;;;;;;;;;;;;;22.65;62.69;101054.13;7279128;19;153248;-63
2022/09/04 03:11:22;;;;;;;;;;;;;;;22.61;62.83;101048.31;7289570;19;153171;-62
2022/09/04 03:13:59;;;;;;;;;;;;;;;22.63;62.92;101054.44;7280584;19;154057;-61
2022/09/04 03:16:39;;;;;;;;;;;;;;;22.60;63.00;101052.28;7284339;19;152587;-61
2022/09/04 03:19:12;;;;;;;;;;;;;;;22.61;63.25;101048.31;7283767;19;153250;-61
2022/09/04 03:21:52;;;;;;;;;;;;;;;22.62;63.55;101049.97;7282699;19;154343;-61
2022/09/04 03:24:25;;;;;;;;;;;;;;;22.62;63.73;101055.59;7281262;19;152042;-61
2022/09/04 03:26:53;;;;;;;;;;;;;;;22.65;63.91;101056.13;7282932;19;153504;-62
2022/09/04 03:29:34;;;;;;;;;;;;;;;22.66;64.40;101057.78;7279608;19;153570;-62
2022/09/04 03:32:01;;;;;;;;;;;;;;;22.65;63.76;101056.94;7282574;19;152561;-62
2022/09/04 03:34:46;;;;;;;;;;;;;;;22.69;64.63;101048.69;7284791;19;153599;-62
2022/09/04 03:37:16;;;;;;;;;;;;;;;22.67;64.61;101046.19;7282720;19;152120;-62
2022/09/04 03:40:01;;;;;;;;;;;;;;;22.70;64.57;101054.03;7278210;19;153852;-62
2022/09/04 03:42:43;;;;;;;;;;;;;;;22.70;64.58;101053.22;7279979;19;153121;-62
2022/09/04 03:45:10;;;;;;;;;;;;;;;22.69;64.71;101048.69;7280400;19;152481;-63
2022/09/04 03:47:42;;;;;;;;;;;;;;;22.73;64.93;101059.03;7284708;19;152551;-63
2022/09/04 03:50:17;;;;;;;;;;;;;;;22.71;64.54;101050.09;7274644;19;153441;-63
2022/09/04 03:52:56;;;;;;;;;;;;;;;22.73;64.71;101052.56;7283012;19;152716;-62
2022/09/04 03:55:39;;;;;;;;;;;;;;;22.73;64.82;101058.19;7287131;19;154367;-62
2022/09/04 03:58:09;;;;;;;;;;;;;;;22.74;65.15;101057.88;7281850;19;152447;-62
2022/09/04 04:00:55;;;;;;;;;;;;;;;22.73;65.12;101053.38;7281300;19;153386;-63
2022/09/04 04:03:33;;;;;;;;;;;;;;;22.75;65.37;101053.09;7277143;19;154307;-63
2022/09/04 04:06:17;;;;;;;;;;;;;;;22.74;65.49;101057.03;7272582;19;152662;-63
2022/09/04 04:08:56;;;;;;;;;;;;;;;22.75;65.23;101053.09;7282990;19;152642;-63
2022/09/04 04:11:26;;;;;;;;;;;;;;;22.75;65.55;101048.28;7282155;19;153850;-63
2022/09/04 04:14:12;;;;;;;;;;;;;;;22.74;65.71;101048.59;7278897;19;151951;-62
2022/09/04 04:16:58;;;;;;;;;;;;;;;22.76;65.95;101051.94;7283965;19;152920;-63
2022/09/04 04:19:32;;;;;;;;;;;;;;;22.79;65.79;101051.28;7286308;19;154145;-62
2022/09/04 04:22:31;;;;;;;;;;;;;;;22.78;65.69;101055.25;7277768;19;152763;-61
2022/09/04 04:25:20;;;;;;;;;;;;;;;22.74;65.98;101060.69;7275505;19;153495;-62
2022/09/04 04:28:06;;;;;;;;;;;;;;;22.73;66.19;101061.00;7280718;19;155462;-62
2022/09/04 04:30:43;;;;;;;;;;;;;;;22.74;66.62;101062.69;7279577;19;153778;-63
2022/09/04 04:33:31;;;;;;;;;;;;;;;22.74;66.79;101065.50;7279202;19;153258;-63
2022/09/04 04:36:06;;;;;;;;;;;;;;;22.74;66.78;101062.69;7277862;19;152602;-63
2022/09/04 04:38:40;;;;;;;;;;;;;;;22.75;67.01;101067.16;7281186;19;154172;-63
2022/09/04 04:41:16;;;;;;;;;;;;;;;22.74;67.28;101060.69;7280639;19;154708;-62
2022/09/04 04:44:01;;;;;;;;;;;;;;;22.76;67.13;101071.66;7284107;19;152481;-63
2022/09/04 04:46:28;;;;;;;;;;;;;;;22.76;67.58;101064.00;7279813;19;153336;-62
2022/09/04 04:48:58;;;;;;;;;;;;;;;22.76;67.55;101066.81;7281507;19;152278;-62
2022/09/04 04:51:40;;;;;;;;;;;;;;;22.73;68.06;101063.81;7276573;19;153509;-62
2022/09/04 04:54:22;;;;;;;;;;;;;;;22.74;68.06;101065.50;7279238;19;152186;-62
2022/09/04 04:56:58;;;;;;;;;;;;;;;22.74;68.64;101063.50;7281288;19;153212;-62
2022/09/04 04:59:43;;;;;;;;;;;;;;;22.75;68.96;101070.81;7278358;19;155262;-62
2022/09/04 05:02:17;;;;;;;;;;;;;;;22.76;68.56;101075.28;7280260;19;154384;-62
2022/09/04 05:04:53;;;;;;;;;;;;;;;22.79;68.57;101076.63;7275028;19;153793;-62
2022/09/04 05:07:36;;;;;;;;;;;;;;;22.73;68.83;101080.72;7286931;19;153581;-62
2022/09/04 05:10:21;;;;;;;;;;;;;;;22.74;69.00;101083.22;7279473;19;152169;-63
2022/09/04 05:13:07;;;;;;;;;;;;;;;22.72;68.70;101085.53;7279045;19;152988;-63
2022/09/04 05:15:36;;;;;;;;;;;;;;;22.75;69.08;101078.44;7277051;19;153190;-63
2022/09/04 05:18:41;;;;;;;;;;;;;;;22.77;69.24;101090.19;7282571;19;152245;-63
2022/09/04 05:21:14;;;;;;;;;;;;;;;22.77;68.92;101093.00;7283058;19;153233;-62
2022/09/04 05:24:04;;;;;;;;;;;;;;;22.77;69.38;101096.66;7284361;19;153468;-62
2022/09/04 05:26:31;;;;;;;;;;;;;;;22.76;69.66;101091.38;7284577;19;151699;-62
2022/09/04 05:29:03;;;;;;;;;;;;;;;22.78;70.05;101092.69;7284824;19;153023;-62
2022/09/04 05:31:42;;;;;;;;;;;;;;;22.79;70.19;101093.53;7291944;19;153602;-62
2022/09/04 05:34:20;;;;;;;;;;;;;;;22.76;69.86;101097.81;7284379;19;153703;-62
2022/09/04 05:36:50;;;;;;;;;;;;;;;22.78;69.83;101092.69;7281436;19;153950;-63
2022/09/04 05:39:29;;;;;;;;;;;;;;;22.76;70.17;101097.81;7285741;19;152402;-62
2022/09/04 05:42:08;;;;;;;;;;;;;;;22.79;70.35;101110.44;7286116;19;152565;-63
2022/09/04 05:44:56;;;;;;;;;;;;;;;22.81;69.95;101103.31;7282822;19;153496;-62
2022/09/04 05:47:26;;;;;;;;;;;;;;;22.80;70.43;101101.69;7287677;19;152376;-63
2022/09/04 05:50:16;;;;;;;;;;;;;;;22.79;69.97;101105.66;7280485;19;155235;-63
2022/09/04 05:52:55;;;;;;;;;;;;;;;22.80;69.97;101106.47;7284498;19;153839;-63
2022/09/04 05:55:22;;;;;;;;;;;;;;;22.81;70.48;101113.75;7291400;19;153227;-63
2022/09/04 05:58:01;;;;;;;;;;;;;;;22.82;70.18;101121.06;7281487;19;153870;-63
2022/09/04 06:00:59;;;;;;;;;;;;;;;22.80;69.93;101118.59;7282542;19;152617;-63
2022/09/04 06:03:35;;;;;;;;;;;;;;;22.83;69.81;101136.81;7280637;19;153060;-62
2022/09/04 06:06:03;;;;;;;;;;;;;;;22.81;70.42;101130.66;7276798;19;153219;-62
2022/09/04 06:08:31;;;;;;;;;;;;;;;;;;7282708;19;152037;-63
2022/09/04 06:11:06;;;;;;;;;;;;;;;22.83;69.93;101139.63;7284336;19;181215;-63
2022/09/04 06:13:41;;;;;;;;;;;;;;;22.83;69.82;101137.66;7283397;19;152937;-63
2022/09/04 06:16:13;;;;;;;;;;;;;;;22.83;69.96;101145.28;7292233;19;154065;-62
2022/09/04 06:18:43;;;;;;;;;;;;;;;22.84;70.27;101146.94;7286139;19;153952;-62
2022/09/04 06:21:09;;;;;;;;;;;;;;;;;;7281499;19;153202;-62
2022/09/04 06:23:36;;;;;;;;;;;;;;;22.84;70.13;101150.59;7281817;19;181522;-62
2022/09/04 06:26:21;;;;;;;;;;;;;;;22.82;69.82;101150.06;7283931;19;154161;-62
2022/09/04 06:28:57;;;;;;;;;;;;;;;22.82;69.80;101160.50;7281456;19;153805;-62
2022/09/04 06:31:30;;;;;;;;;;;;;;;22.81;69.86;101156.84;7283824;19;154004;-62
2022/09/04 06:33:56;;;;;;;;;;;;;;;22.80;70.05;101157.19;7281162;19;152686;-62
2022/09/04 06:36:41;;;;;;;;;;;;;;;22.78;70.09;101154.69;7279439;19;153644;-62
2022/09/04 06:39:08;;;;;;;;;;;;;;;22.80;69.55;101157.19;7291193;19;152701;-62
2022/09/04 06:41:44;;;;;;;;;;;;;;;22.80;70.62;101160.00;7286734;19;152760;-63
2022/09/04 06:44:17;;;;;;;;;;;;;;;22.81;70.40;101153.19;7281954;19;152784;-62
2022/09/04 06:46:44;;;;;;;;;;;;;;;22.82;69.81;101150.06;7284869;19;152626;-62
2022/09/04 06:49:23;;;;;;;;;;;;;;;22.84;70.70;101150.59;7283537;19;152332;-62
2022/09/04 06:51:58;;;;;;;;;;;;;;;22.86;70.23;101155.91;7284633;19;154904;-62
2022/09/04 06:54:31;;;;;;;;;;;;;;;22.88;69.47;101156.41;7284291;19;153647;-62
2022/09/04 06:57:04;;;;;;;;;;;;;;;22.88;69.69;101159.25;7282667;19;153361;-63
2022/09/04 06:59:30;;;;;;;;;;;;;;;22.90;69.75;101162.56;7281449;19;152920;-63
2022/09/04 07:02:16;;;;;;;;;;;;;;;22.95;68.89;101162.44;7286768;19;153676;-63
2022/09/04 07:04:47;;;;;;;;;;;;;;;22.93;69.20;101164.75;7278434;19;153478;-62
2022/09/04 07:07:16;;;;;;;;;;;;;;;22.96;69.11;101164.94;7283232;19;152792;-62
2022/09/04 07:09:46;;;;;;;;;;;;;;;22.93;69.06;101167.56;7282426;19;152602;-62
2022/09/04 07:12:25;;;;;;;;;;;;;;;22.95;69.17;101168.91;7285807;19;152683;-63
2022/09/04 07:14:58;;;;;;;;;;;;;;;22.91;69.12;101176.34;7280423;19;153327;-63
2022/09/04 07:17:39;;;;;;;;;;;;;;;22.92;69.58;101171.53;7283774;19;152232;-63
2022/09/04 07:20:21;;;;;;;;;;;;;;;22.91;69.17;101178.31;7279496;19;152711;-63
2022/09/04 07:22:48;;;;;;;;;;;;;;;;;;7280897;19;153634;-62
2022/09/04 07:25:25;;;;;;;;;;;;;;;22.84;69.03;101181.59;7281270;19;161008;-62
2022/09/04 07:28:10;;;;;;;;;;;;;;;22.89;68.58;101177.81;7279078;19;156176;-62
2022/09/04 07:30:43;;;;;;;;;;;;;;;22.87;68.10;101180.09;7279807;19;152325;-62
2022/09/04 07:33:30;;;;;;;;;;;;;;;22.85;67.97;101190.88;7283043;19;153277;-62
2022/09/04 07:35:57;;;;;;;;;;;;;;;22.84;68.05;101192.88;7277573;19;154150;-62
2022/09/04 07:38:33;;;;;;;;;;;;;;;22.82;68.52;101185.88;7283385;19;152325;-62
2022/09/04 07:41:08;;;;;;;;;;;;;;;22.84;67.58;101194.84;7281539;19;152488;-63
2022/09/04 07:43:34;;;;;;;;;;;;;;;22.85;68.03;101196.50;7280550;19;153910;-63
2022/09/04 07:46:05;;;;;;;;;;;;;;;22.84;68.44;101200.47;7280203;19;152068;-63
2022/09/04 07:48:32;;;;;;;;;;;;;;;;;;7289227;19;153133;-63
2022/09/04 07:51:20;;;;;;;;;;;;;;;22.91;68.44;101206.50;7277604;19;159699;-63
2022/09/04 07:54:03;;;;;;;;;;;;;;;22.85;68.02;101204.97;7281455;19;153864;-63
2022/09/04 07:56:34;;;;;;;;;;;;;;;22.88;67.28;101209.97;7281730;19;153174;-63
2022/09/04 07:59:01;;;;;;;;;;;;;;;22.86;67.50;101212.25;7277983;19;152777;-63
2022/09/04 08:01:34;;;;;;;;;;;;;;;22.88;67.01;101209.97;7280050;19;153176;-63
2022/09/04 08:04:05;;;;;;;;;;;;;;;22.87;66.64;101205.47;7278273;19;154338;-63
2022/09/04 08:06:45;;;;;;;;;;;;;;;22.85;66.43;101208.59;7278606;19;152676;-63
2022/09/04 08:09:12;;;;;;;;;;;;;;;22.85;65.94;101207.78;7282354;19;152106;-63
2022/09/04 08:11:56;;;;;;;;;;;;;;;22.88;66.38;101213.63;7289896;19;152074;-63
2022/09/04 08:14:29;;;;;;;;;;;;;;;22.88;66.21;101212.78;7281975;19;153611;-63
2022/09/04 08:17:19;;;;;;;;;;;;;;;22.85;65.27;101207.78;7281516;19;153236;-63
2022/09/04 08:19:47;;;;;;;;;;;;;;;22.85;65.36;101204.97;7275279;19;152912;-63
2022/09/04 08:22:14;;;;;;;;;;;;;;;;;;7281959;19;154287;-63
2022/09/04 08:24:43;;;;;;;;;;;;;;;22.83;65.70;101212.88;7276214;19;183038;-63
2022/09/04 08:27:29;;;;;;;;;;;;;;;22.83;65.61;101213.72;7279502;19;153616;-63
2022/09/04 08:30:05;;;;;;;;;;;;;;;22.81;65.63;101215.19;7263222;19;155129;-63
2022/09/04 08:32:50;;;;;;;;;;;;;;;22.83;64.97;101218.53;7277659;19;153702;-63
2022/09/04 08:35:35;;;;;;;;;;;;;;;22.79;65.59;101212.69;7276824;19;152646;-63
2022/09/04 08:38:20;;;;;;;;;;;;;;;22.84;65.01;101218.22;7279828;19;153192;-63
2022/09/04 08:40:50;;;;;;;;;;;;;;;22.80;65.01;101224.81;7280508;19;152474;-62
2022/09/04 08:43:32;;;;;;;;;;;;;;;22.82;64.57;101225.31;7278713;19;152797;-63
2022/09/04 08:46:12;;;;;;;;;;;;;;;22.78;65.36;101236.38;7275321;19;153137;-63
2022/09/04 08:48:42;;;;;;;;;;;;;;;22.78;65.05;101238.38;7277683;19;152359;-63
2022/09/04 08:51:38;;;;;;;;;;;;;;;22.77;65.19;101237.53;7277628;19;152773;-63
2022/09/04 08:54:24;;;;;;;;;;;;;;;22.78;65.05;101244.00;7276351;19;153264;-63
2022/09/04 08:56:52;;;;;;;;;;;;;;;22.78;65.36;101244.84;7293549;19;152692;-63
2022/09/04 08:59:37;;;;;;;;;;;;;;;22.81;64.41;101251.81;7281640;19;154620;-63
2022/09/04 09:02:04;;;;;;;;;;;;;;;22.81;64.73;101252.63;7286998;19;151989;-63
2022/09/04 09:04:35;;;;;;;;;;;;;;;22.82;64.66;101257.13;7283176;19;153362;-63
2022/09/04 09:07:04;;;;;;;;;;;;;;;22.87;64.19;101259.00;7283523;19;153597;-63
2022/09/04 09:10:03;;;;;;;;;;;;;;;22.89;64.12;101256.72;7284234;19;152333;-63
2022/09/04 09:12:48;;;;;;;;;;;;;;;22.88;64.07;101267.16;7283126;19;152385;-63
2022/09/04 09:15:38;;;;;;;;;;;;;;;22.88;63.50;101271.94;7281475;19;153540;-63
2022/09/04 09:18:24;;;;;;;;;;;;;;;22.88;63.64;101267.16;7283527;19;152671;-63
2022/09/04 09:21:23;;;;;;;;;;;;;;;22.90;63.52;101266.81;7289623;19;154555;-63
2022/09/04 09:23:52;;;;;;;;;;;;;;;22.81;63.79;101282.78;7282873;19;152763;-63
2022/09/04 09:26:22;;;;;;;;;;;;;;;22.91;63.06;101286.22;7286506;19;152425;-63
2022/09/04 09:28:49;;;;;;;;;;;;;;;22.85;63.55;101284.66;7280521;19;154358;-63
2022/09/04 09:31:21;;;;;;;;;;;;;;;22.87;63.32;101288.00;7282847;19;152324;-63
2022/09/04 09:34:10;;;;;;;;;;;;;;;22.79;63.35;101288.75;7279104;19;153103;-64
2022/09/04 09:37:01;;;;;;;;;;;;;;;22.74;62.62;101293.69;7280547;19;152743;-63
2022/09/04 09:39:40;;;;;;;;;;;;;;;22.71;61.90;101300.78;7283400;19;154190;-63
2022/09/04 09:42:26;;;;;;;;;;;;;;;22.65;62.30;101293.56;7286214;19;153030;-63
2022/09/04 09:45:03;;;;;;;;;;;;;;;22.63;61.80;101299.50;7287898;19;153228;-63
2022/09/04 09:47:39;;;;;;;;;;;;;;;22.60;61.94;101300.13;7285867;19;152996;-63
2022/09/04 09:50:11;;;;;;;;;;;;;;;22.68;61.80;101309.81;7273211;19;155596;-63
2022/09/04 09:52:44;;;;;;;;;;;;;;;22.63;61.83;101309.91;7285994;19;151851;-64
2022/09/04 09:55:31;;;;;;;;;;;;;;;22.60;61.76;101322.66;7284888;19;152886;-63
2022/09/04 09:58:01;;;;;;;;;;;;;;;22.74;62.23;101316.22;7284556;19;154938;-63
2022/09/04 10:00:37;;;;;;;;;;;;;;;22.74;61.83;101307.75;7284075;19;152379;-63
2022/09/04 10:03:23;;;;;;;;;;;;;;;22.81;61.79;101316.59;7286071;19;153492;-63
2022/09/04 10:05:51;;;;;;;;;;;;;;;22.75;62.17;101312.25;7275786;19;154591;-63
2022/09/04 10:08:33;;;;;;;;;;;;;;;22.77;62.63;101318.38;7290668;19;153023;-63
2022/09/04 10:11:17;;;;;;;;;;;;;;;22.72;62.79;101324.97;7283006;19;153516;-63
2022/09/04 10:13:43;;;;;;;;;;;;;;;22.78;62.62;101320.06;7282320;19;152719;-58
2022/09/04 10:16:24;;;;;;;;;;;;;;;22.80;63.12;101307.34;7284509;19;152007;-61
2022/09/04 10:18:55;;;;;;;;;;;;;;;22.90;62.76;101312.72;7284504;19;153470;-63
2022/09/04 10:21:22;;;;;;;;;;;;;;;;;;7282396;19;152499;-62
2022/09/04 10:24:09;;;;;;;;;;;;;;;22.90;62.31;101318.38;7284241;19;181527;-62
2022/09/04 10:26:41;;;;;;;;;;;;;;;22.80;61.69;101315.81;7284595;19;152596;-62
2022/09/04 10:29:25;;;;;;;;;;;;;;;22.80;61.58;101306.50;7292362;19;152304;-62
2022/09/04 10:32:03;;;;;;;;;;;;;;;22.77;61.54;101310.78;7285804;19;153607;-62
2022/09/04 10:34:43;;;;;;;;;;;;;;;22.77;61.12;101313.59;7283762;19;151667;-62
2022/09/04 10:37:13;;;;;;;;;;;;;;;22.76;60.92;101326.00;7281724;19;153500;-62
2022/09/04 10:42:44;;;;;;;;;;;;;;;22.74;60.83;101325.50;7285073;19;151965;-62
2022/09/04 10:45:31;;;;;;;;;;;;;;;22.75;60.21;101320.69;7283025;19;152600;-62
2022/09/04 10:48:06;;;;;;;;;;;;;;;22.77;59.97;101318.38;7279788;19;154219;-62
2022/09/04 10:50:34;;;;;;;;;;;;;;;22.79;59.64;101324.56;7279454;19;152247;-62
2022/09/04 10:53:19;;;;;;;;;;;;;;;22.77;60.00;101319.22;7289623;19;154087;-61
2022/09/04 10:55:54;;;;;;;;;;;;;;;22.77;59.87;101326.84;7280990;19;152595;-62
2022/09/04 10:58:21;;;;;;;;;;;;;;;22.76;59.70;101326.00;7281076;19;152397;-62
2022/09/04 11:00:51;;;;;;;;;;;;;;;22.75;59.74;101323.53;7279127;19;156029;-62
2022/09/04 11:03:24;;;;;;;;;;;;;;;22.76;60.07;101331.63;7281433;19;151723;-62
2022/09/04 11:06:07;;;;;;;;;;;;;;;22.74;59.45;101325.50;7277050;19;153375;-62
2022/09/04 11:08:44;;;;;;;;;;;;;;;22.77;59.41;101332.47;7281089;19;153707;-62
2022/09/04 11:11:18;;;;;;;;;;;;;;;22.77;59.61;101321.19;7280221;19;153056;-62
2022/09/04 11:14:06;;;;;;;;;;;;;;;22.80;59.99;101326.22;7279610;19;154450;-62
2022/09/04 11:16:49;;;;;;;;;;;;;;;22.80;60.13;101323.41;7288266;19;152631;-62
2022/09/04 11:19:23;;;;;;;;;;;;;;;22.79;60.67;101328.22;7282474;19;152235;-62
2022/09/04 11:21:55;;;;;;;;;;;;;;;22.83;60.26;101340.50;7282913;19;152807;-62
2022/09/04 11:24:41;;;;;;;;;;;;;;;22.83;60.54;101331.22;7282847;19;152188;-61
2022/09/04 11:27:16;;;;;;;;;;;;;;;22.82;60.64;101323.91;7285140;19;153818;-62
2022/09/04 11:29:58;;;;;;;;;;;;;;;22.83;60.63;101332.06;7282564;19;152761;-62
2022/09/04 11:32:44;;;;;;;;;;;;;;;22.88;60.34;101331.13;7284670;19;153271;-62
2022/09/04 11:35:35;;;;;;;;;;;;;;;22.88;60.73;101331.13;7278561;19;153337;-62
2022/09/04 11:38:18;;;;;;;;;;;;;;;22.89;60.83;101341.25;7278660;19;153960;-62
2022/09/04 11:41:03;;;;;;;;;;;;;;;22.90;60.86;101338.09;7288696;19;151975;-62
2022/09/04 11:43:40;;;;;;;;;;;;;;;22.94;60.76;101338.31;7279015;19;153189;-62
2022/09/04 11:46:20;;;;;;;;;;;;;;;22.97;60.60;101341.34;7279623;19;152022;-62
2022/09/04 11:49:00;;;;;;;;;;;;;;;23.07;60.50;101340.28;7280840;19;153676;-62
2022/09/04 11:51:38;;;;;;;;;;;;;;;23.10;60.75;101341.63;7274988;19;153242;-62
2022/09/04 11:54:18;;;;;;;;;;;;;;;23.02;60.98;101346.88;7280917;19;152207;-62
2022/09/04 11:56:46;;;;;;;;;;;;;;;22.97;61.36;101329.22;7282367;19;153393;-62
2022/09/04 11:59:22;;;;;;;;;;;;;;;22.96;60.98;101336.00;7228556;19;154341;-62
2022/09/04 12:01:52;;;;;;;;;;;;;;;22.97;61.10;101346.97;7272170;19;155508;-62
2022/09/04 12:04:27;;;;;;;;;;;;;;;22.92;61.24;101332.16;7279682;19;152780;-62
2022/09/04 12:07:12;;;;;;;;;;;;;;;22.92;60.99;101338.63;7272714;19;152103;-62
2022/09/04 12:09:42;;;;;;;;;;;;;;;22.95;60.87;101342.78;7275429;19;154275;-62
2022/09/04 12:12:22;;;;;;;;;;;;;;;22.97;60.61;101343.31;7273487;19;154432;-62
2022/09/04 12:14:49;;;;;;;;;;;;;;;22.98;60.92;101345.84;7273686;19;152945;-62
2022/09/04 12:17:39;;;;;;;;;;;;;;;22.97;60.80;101338.53;7277154;19;155653;-61
2022/09/04 12:20:22;;;;;;;;;;;;;;;22.98;60.75;101345.00;7275021;19;154983;-62
2022/09/04 12:23:16;;;;;;;;;;;;;;;23.00;60.84;101337.03;7280757;19;154081;-61
2022/09/04 12:25:56;;;;;;;;;;;;;;;23.00;60.65;101342.69;7274545;19;152700;-62
2022/09/04 12:28:38;;;;;;;;;;;;;;;23.01;60.65;101344.34;7289303;19;153649;-62
2022/09/04 12:31:24;;;;;;;;;;;;;;;23.02;60.75;101346.88;7288177;19;152264;-62
2022/09/04 12:34:05;;;;;;;;;;;;;;;23.03;61.11;101330.78;7284757;19;152553;-62
2022/09/04 12:36:53;;;;;;;;;;;;;;;23.04;60.76;101335.25;7276841;19;153028;-61
2022/09/04 12:39:39;;;;;;;;;;;;;;;23.03;61.20;101344.88;7283740;19;152034;-62
2022/09/04 12:42:09;;;;;;;;;;;;;;;23.05;61.26;101336.94;7281246;19;154258;-62
2022/09/04 12:44:54;;;;;;;;;;;;;;;23.05;61.02;101345.38;7279060;19;153339;-62
2022/09/04 12:47:31;;;;;;;;;;;;;;;23.02;60.64;101346.03;7283188;19;153112;-62
2022/09/04 12:50:10;;;;;;;;;;;;;;;23.01;60.56;101345.19;7288373;19;154693;-61
2022/09/04 12:52:44;;;;;;;;;;;;;;;23.02;60.16;101346.88;7283472;19;154735;-61
2022/09/04 12:55:29;;;;;;;;;;;;;;;23.03;60.85;101344.88;7282183;19;153307;-62
2022/09/04 12:58:01;;;;;;;;;;;;;;;23.04;60.75;101346.53;7280861;19;153557;-62
2022/09/04 13:00:31;;;;;;;;;;;;;;;23.04;60.53;101344.53;7280695;19;153131;-62
2022/09/04 13:03:29;;;;;;;;;;;;;;;23.02;60.51;101338.41;7281408;19;155872;-62
2022/09/04 13:06:11;;;;;;;;;;;;;;;23.01;60.72;101348.00;7277667;19;152355;-62
2022/09/04 13:08:40;;;;;;;;;;;;;;;23.03;60.91;101348.50;7284640;19;153600;-62
2022/09/04 13:11:29;;;;;;;;;;;;;;;23.05;60.96;101356.66;7280446;19;154955;-62
2022/09/04 13:14:32;;;;;;;;;;;;;;;23.03;61.03;101351.31;7290297;19;152583;-62
2022/09/04 13:17:32;;;;;;;;;;;;;;;23.04;61.48;101340.88;7284377;19;154370;-62
2022/09/04 13:20:17;;;;;;;;;;;;;;;23.05;61.13;101348.19;7280015;19;152687;-62
2022/09/04 13:23:03;;;;;;;;;;;;;;;23.05;61.63;101346.22;7284863;19;153422;-62
2022/09/04 13:25:51;;;;;;;;;;;;;;;23.09;61.16;101348.41;7280305;19;153870;-62